Flight Track Log - Related Links

Times and Time Zones

All times are in EDT time to prevent confusion due to time zone crossing. See the KAP927 flight status page for this flight to view local times or setup timezone preferences in your user account.


Time Position Orientation Groundspeed Altitude Reporting Facility
EDT Latitude Longitude Course Direction KTS MPH feet Rate Location/Type
Fri 07:02:56 PM 43.0944 -74.1292 329° Northwest 156 180 6,900  Level Boston Center
Fri 07:03:56 PM 43.1378 -74.1614 332° Northwest 163 188 7,200 300 Climbing Boston Center
Fri 07:04:56 PM 43.1728 -74.1908 328° Northwest 163 188 7,500 400 Climbing Boston Center
Fri 07:05:56 PM 43.2117 -74.2233 329° Northwest 163 188 8,000 450 Climbing Boston Center
Fri 07:06:56 PM 43.2467 -74.2500 331° Northwest 163 188 8,400 500 Climbing Boston Center
Fri 07:07:56 PM 43.2858 -74.2825 329° Northwest 158 182 9,000 550 Climbing Boston Center
Fri 07:08:00 PM 43.3158 -74.2766 329° Northwest  Level Estimated
Fri 07:08:56 PM 43.3167 -74.3036 334° Northwest 149 171 9,500  Level Boston Center
Fri 07:09:56 PM 43.3536 -74.3361 327° Northwest 144 166 10,000 450 Climbing Boston Center
Fri 07:10:56 PM 43.3867 -74.3628 330° Northwest 144 166 10,400 250 Climbing Boston Center
Fri 07:11:56 PM 43.4217 -74.3897 331° Northwest 144 166 10,500 50 Climbing Boston Center
Fri 07:12:56 PM 43.4606 -74.4225 329° Northwest 144 166 10,500  Level Boston Center
Fri 07:13:56 PM 43.4997 -74.4522 331° Northwest 149 171 10,500  Level Boston Center
Fri 07:14:56 PM 43.5367 -74.4822 330° Northwest 154 177 10,500 50 Level Boston Center
Fri 07:15:56 PM 43.5736 -74.5119 330° Northwest 154 177 10,600  Climbing Boston Center
Fri 07:16:56 PM 43.6086 -74.5419 328° Northwest 154 177 10,500  Descending Boston Center
Fri 07:17:56 PM 43.6436 -74.5719 328° Northwest 154 177 10,600 50 Climbing Boston Center
Fri 07:18:56 PM 43.6783 -74.5989 331° Northwest 154 177 10,600  Level Boston Center
Fri 07:19:56 PM 43.7153 -74.6289 330° Northwest 154 177 10,600 -50 Level Boston Center
Fri 07:20:56 PM 43.7500 -74.6619 325° Northwest 149 171 10,500 -50 Descending Boston Center
Fri 07:21:56 PM 43.7869 -74.6919 330° Northwest 149 171 10,500 50 Level Boston Center
Fri 07:22:56 PM 43.8219 -74.7192 331° Northwest 149 171 10,600 50 Climbing Boston Center
Fri 07:23:56 PM 43.8589 -74.7494 329° Northwest 149 171 10,600 -50 Level Boston Center
Fri 07:24:55 PM 43.8897 -74.7736 331° Northwest 149 171 10,500 -250 Descending Boston Center
Fri 07:25:56 PM 43.9369 -74.8072 333° Northwest 149 171 10,100 -545 Descending Boston Center
Fri 07:26:56 PM 43.9778 -74.8433 328° Northwest 161 185 9,400 -650 Descending Boston Center
Fri 07:27:56 PM 44.0208 -74.8797 329° Northwest 172 198 8,800 -750 Descending Boston Center
Fri 07:28:56 PM 44.0678 -74.9194 329° Northwest 179 206 7,900 -733 Descending Boston Center
Fri 07:30:07 PM 44.1131 -74.9531 332° Northwest 179 206 7,200 -636 Descending Boston Center
Fri 07:31:08 PM 44.1683 -74.9958 331° Northwest 179 206 6,500 -595 Descending Boston Center
Fri 07:32:08 PM 44.2092 -75.0294 329° Northwest 179 206 6,000 -450 Descending Boston Center
Fri 07:33:08 PM 44.2542 -75.0692 328° Northwest 179 206 5,600 -450 Descending Boston Center
Fri 07:34:08 PM 44.2950 -75.1058 327° Northwest 179 206 5,100 -450 Descending Boston Center
Fri 07:35:08 PM 44.3381 -75.1425 329° Northwest 179 206 4,700 -450 Descending Boston Center
Fri 07:36:08 PM 44.3786 -75.1822 325° Northwest 179 206 4,200 -500 Descending Boston Center
Fri 07:37:08 PM 44.4214 -75.2219 326° Northwest 179 206 3,700 -400 Descending Boston Center
Fri 07:38:08 PM 44.4667 -75.2531 334° Northwest 179 206 3,400 -350 Descending Boston Center
Fri 07:39:08 PM 44.5075 -75.2900 327° Northwest 179 206 3,000 -400 Descending Boston Center

Login

Don't have an account? Register now (free) for customized features, flight alerts, and more!